The Standpipe 5K - 10/7/2017
Place Name Gender/Age Award Category Category Place Pace Time
1 Brock, Noah M16 M14-18 1 of 8 05:44 17:46.53
2 LEWIS, JACOB M18 M14-18 2 of 8 05:56 18:25.04
3 Ball, Gary M48 M45-49 1 of 2 06:12 19:12.24
4 BOATWRIGHT, HAYDEN M15 M14-18 3 of 8 06:17 19:28.67
5 COOLEY, CHANDLER M17 M14-18 4 of 8 06:20 19:38.78
6 Roberts, Morgan F15 F14-18 1 of 3 06:28 20:04.06
7 Luke, Dan M48 M45-49 2 of 2 06:36 20:28.23
8 Campbell, Rollin M19 M19-24 1 of 1 06:40 20:39.29
9 PRICE, HARRISON M15 M14-18 5 of 8 06:43 20:48.89
10 HEMBREE, WILL M15 M14-18 6 of 8 06:44 20:52.64
11 MUNDY, MATT M35 M35-39 1 of 2 07:09 22:11.33
12 WILD, TOM M64 M60-69 1 of 1 07:16 22:30.06
13 LUKE, GEORGE M77 M70-99 1 of 3 07:23 22:52.19
14 Riddle, Luke M36 M35-39 2 of 2 07:40 23:46.71
15 GEER, MADISON F17 F14-18 2 of 3 07:44 23:57.75
16 BOBO, WHITNER F13 F1-13 1 of 2 07:44 23:59.71
17 Walls, Judy F59 F55-59 1 of 3 07:49 24:12.59
18 KING, HUNTER M15 M14-18 7 of 8 07:56 24:36.71
19 WHEELER, GEORGE M59 M55-59 1 of 3 08:04 25:01.20
20 Taylor, Mandy F31 F30-34 1 of 3 08:11 25:22.33
21 COVAN, GRACE F16 F14-18 3 of 3 08:12 25:25.37
22 TAYLOR, RUSSELL M43 M40-44 1 of 2 08:12 25:26.54
23 Vaughn, Daren M33 M30-34 1 of 2 08:30 26:21.27
24 O, E. A. M15 M14-18 8 of 8 08:39 26:49.95
25 Taylor, Amber F29 F25-29 1 of 3 09:13 28:33.86
26 ROWLAND, TRUMAN M10 M1-13 1 of 2 09:14 28:38.18
27 TAYLOR, LILIANA F19 F19-24 1 of 2 09:22 29:03.46
28 FIEGEL, IAN M30 M30-34 2 of 2 09:24 29:09.38
29 FIEGEL, CADENCE F11 F1-13 2 of 2 09:24 29:09.51
30 OLIVER, CHARLES M44 M40-44 2 of 2 09:36 29:46.30
31 JAMES, BRAD M56 M55-59 2 of 3 09:40 29:57.43
32 KNIGHT, MEAGAN F41 F40-44 1 of 2 10:03 31:09.33
33 MARTIN, KIM F44 F40-44 2 of 2 10:29 32:31.33
34 Boggs, Jessica F37 F35-39 1 of 2 10:35 32:49.00
35 Taylor, Ashley F35 F35-39 2 of 2 10:47 33:25.81
36 FIEGEL, KARYN F28 F25-29 2 of 3 10:53 33:45.63
37 LEWIS, JESSIE F20 F19-24 2 of 2 11:25 35:23.90
38 BROWN, SHEILA F53 F50-54 1 of 2 12:07 37:32.21
39 Manjay, Genevieve F33 F30-34 2 of 3 12:22 38:21.04
40 COBB, KALEB M13 M1-13 2 of 2 12:32 38:51.38
41 Wilson, James M82 M70-99 2 of 3 12:44 39:27.43
42 BROWN, TONY M55 M55-59 3 of 3 13:05 40:34.80
43 WHITE, COURTNEY F50 F50-54 2 of 2 13:17 41:10.24
44 GAMBRELL, REENE F57 F55-59 2 of 3 13:18 41:13.22
45 THOMAS, TARA F34 F30-34 3 of 3 14:35 45:11.71
46 JAMES, JENNIFER F28 F25-29 3 of 3 14:44 45:41.14
47 HAYNES, BETTY F57 F55-59 3 of 3 16:12 50:14.15
48 VIPPERMAN, JULIE F62 F60-69 1 of 1 16:18 50:33.06
49 TAYLOR, RAYMOND M80 M70-99 3 of 3 22:18 01:09:09.09